Monterey, CA

6:00 PM PDT on August 21, 2014 (GMT -0700)
Monterey Peninsula | Change Station
CLOSE
Current Station
Airport
Location: Monterey,
Elevation: 253 ft
Nearby Weather Stations

Elev 253 ft 36.59 °N, 121.84 °W | Updated 6 minutes ago

Clear
Clear
64 °F
Feels Like 64 °F
N
10
Wind Variable Wind from SW

Today
High -- | Low -- °F
--% Chance of Precip.
Yesterday
High -- | Low -- °F
Precip. -- in
6:29 AM 7:50 PM
Waning Crescent, 11% visible
Pressure 29.98 in
Visibility 10.0 miles
Clouds Clear
Dew Point 56 °F
Humidity 75%
Rainfall 0.00 in
Snow Depth Not available.
UV 2 out of 12
Pollen 5.90 out of 12
Air Quality Not available.
Flu Activity Not available.
METAR KMRY 220054Z 22009KT 10SM CLR 18/13 A2994 RMK AO2 SLP150 T01780133

More Conditions Fewer Conditions

Pressure 29.98 in
Visibility 10.0 miles
Clouds Clear
Dew Point 56 °F
Humidity 75%
Rainfall 0.00 in
Snow Depth Not available.
UV 2 out of 12
Pollen 5.90 out of 12
Air Quality Not available.
Flu Activity Not available.
METAR KMRY 220054Z 22009KT 10SM CLR 18/13 A2994 RMK AO2 SLP150 T01780133

More Conditions Fewer Conditions

10-Day Weather Forecast

Almanac

Astronomy

Aug. 21, 2014 Rise Set
Actual Time 6:29 AM PDT 7:50 PM PDT
Civil Twilight 6:02 AM PDT 8:17 PM PDT
Nautical Twilight 5:30 AM PDT 8:49 PM PDT
Astronomical Twilight 4:56 AM PDT 9:23 PM PDT
Moon 3:07 AM PDT (8/21) 5:20 PM PDT (8/21)
Length of Visible Light 14h 14m
Length of Day
13h 20m
Tomorrow will be 2m 8s shorter.
Waning Crescent, 11% of the Moon is Illuminated
Today
Waning Crescent
Aug 25
New
Sep 2
First Quarter
Sep 8
Full
Sep 15
Last Quarter

Today's Extremes

State Highs State Lows

Community

WunderPhotos

Upload Photos

1,746,095 photos uploaded!

Nearby

Snow Depth

Station Depth Elevation
Leavitt Meadows 0 in 7200 ft
Summit Meadow 0 in 9122 ft
Tahoe City Cross 0 in 6750 ft
CSS Lab 3 in 6900 ft
Adin Mountain 0 in 6200 ft

Earthquake Activity

City Distance Mag. Time & Date
Berkeley, California 90 miles 2.6 7:41 PM PDT
2014-08-16
King City, California 58 miles 2.7 10:26 PM PDT
2014-08-15
Kettleman City, California 107 miles 2.9 11:32 PM PDT
2014-08-14
King City, California 58 miles 2.9 8:01 PM PDT
2014-08-14
Minimum magnitude displayed is 2.5.

Coastal Water Temperatures

Place Temperature
Monterey, CA 62.1 °F
Redwood City, CA 73.9 °F

Nearby Weather Stations